createdAt,value
2019-03-12T00:00:48.821Z,100499.00
2019-03-12T00:03:18.301Z,100491.00
2019-03-12T00:05:47.746Z,100504.00
2019-03-12T00:08:17.196Z,100508.00
2019-03-12T00:10:46.686Z,100499.00
2019-03-12T00:13:16.129Z,100501.00
2019-03-12T00:15:45.581Z,100515.00
2019-03-12T00:18:15.049Z,100523.00
2019-03-12T00:20:44.503Z,100524.00
2019-03-12T00:23:13.950Z,100522.00
2019-03-12T00:25:43.453Z,100531.00
2019-03-12T00:28:12.889Z,100536.00
2019-03-12T00:30:42.344Z,100538.00
2019-03-12T00:33:11.916Z,100546.00
2019-03-12T00:35:41.467Z,100534.00
2019-03-12T00:38:10.899Z,100532.00
2019-03-12T00:40:40.374Z,100544.00
2019-03-12T00:43:09.821Z,100540.00
2019-03-12T00:45:39.259Z,100547.00
2019-03-12T00:48:08.746Z,100558.00
2019-03-12T00:50:38.187Z,100553.00
2019-03-12T00:53:07.634Z,100557.00
2019-03-12T00:55:37.095Z,100566.00
2019-03-12T00:58:06.539Z,100565.00
2019-03-12T01:00:36.114Z,100566.00
2019-03-12T01:03:05.654Z,100567.00
2019-03-12T01:05:35.097Z,100573.00
2019-03-12T01:08:04.545Z,100560.00
2019-03-12T01:10:34.021Z,100577.00
2019-03-12T01:13:13.976Z,100580.00
2019-03-12T01:15:43.447Z,100580.00
2019-03-12T01:18:13.910Z,100582.00
2019-03-12T01:20:43.605Z,100582.00
2019-03-12T01:23:13.069Z,100599.00
2019-03-12T01:25:42.596Z,100603.00
2019-03-12T01:28:12.030Z,100609.00
2019-03-12T01:30:41.700Z,100607.00
2019-03-12T01:33:11.145Z,100605.00
2019-03-12T01:35:40.580Z,100606.00
2019-03-12T01:38:10.133Z,100609.00
2019-03-12T01:40:39.586Z,100621.00
2019-03-12T01:43:09.028Z,100626.00
2019-03-12T01:45:38.497Z,100635.00
2019-03-12T01:48:07.950Z,100644.00
2019-03-12T01:50:37.478Z,100638.00
2019-03-12T01:53:07.037Z,100646.00
2019-03-12T01:55:36.553Z,100656.00
2019-03-12T01:58:05.732Z,100654.00
2019-03-12T02:00:35.283Z,100666.00
2019-03-12T02:03:04.915Z,100662.00
2019-03-12T02:05:34.347Z,100674.00
2019-03-12T02:08:03.979Z,100672.00
2019-03-12T02:10:33.511Z,100668.00
2019-03-12T02:13:02.951Z,100668.00
2019-03-12T02:15:32.491Z,100668.00
2019-03-12T02:18:01.927Z,100681.00
2019-03-12T02:20:31.387Z,100686.00
2019-03-12T02:23:00.913Z,100683.00
2019-03-12T02:25:30.642Z,100690.00
2019-03-12T02:28:00.075Z,100690.00
2019-03-12T02:30:29.575Z,100691.00
2019-03-12T02:32:59.017Z,100691.00
2019-03-12T02:35:28.467Z,100700.00
2019-03-12T02:37:57.938Z,100696.00
2019-03-12T02:40:27.384Z,100704.00
2019-03-12T02:42:56.823Z,100702.00
2019-03-12T02:45:26.373Z,100704.00
2019-03-12T02:47:55.844Z,100705.00
2019-03-12T02:50:25.273Z,100706.00
2019-03-12T02:52:54.746Z,100713.00
2019-03-12T02:55:24.177Z,100708.00
2019-03-12T02:57:53.633Z,100712.00
2019-03-12T03:00:24.305Z,100712.00
2019-03-12T03:02:53.756Z,100717.00
2019-03-12T03:05:23.197Z,100726.00
2019-03-12T03:07:53.857Z,100729.00
2019-03-12T03:10:23.588Z,100733.00
2019-03-12T03:12:53.047Z,100742.00
2019-03-12T03:15:45.835Z,100747.00
2019-03-12T03:18:15.284Z,100752.00
2019-03-12T03:20:44.720Z,100750.00
2019-03-12T03:23:14.214Z,100758.00
2019-03-12T03:25:43.658Z,100760.00
2019-03-12T03:28:13.105Z,100765.00
2019-03-12T03:30:43.530Z,100772.00
2019-03-12T03:33:12.967Z,100776.00
2019-03-12T03:35:42.435Z,100774.00
2019-03-12T03:38:11.955Z,100778.00
2019-03-12T03:40:41.382Z,100772.00
2019-03-12T03:43:10.811Z,100787.00
2019-03-12T03:45:40.294Z,100792.00
2019-03-12T03:48:09.739Z,100798.00
2019-03-12T03:50:39.197Z,100797.00
2019-03-12T03:53:08.665Z,100804.00
2019-03-12T03:55:38.211Z,100799.00
2019-03-12T03:58:07.694Z,100801.00
2019-03-12T04:00:37.285Z,100806.00
2019-03-12T04:03:06.747Z,100813.00
2019-03-12T04:05:36.196Z,100817.00
2019-03-12T04:08:05.661Z,100815.00
2019-03-12T04:10:35.107Z,100821.00
2019-03-12T04:13:04.555Z,100828.00
2019-03-12T04:15:34.046Z,100829.00
2019-03-12T04:18:03.466Z,100826.00
2019-03-12T04:20:32.916Z,100826.00
2019-03-12T04:23:02.390Z,100831.00
2019-03-12T04:25:31.844Z,100838.00
2019-03-12T04:28:01.271Z,100848.00
2019-03-12T04:30:30.738Z,100851.00
2019-03-12T04:33:00.189Z,100849.00
2019-03-12T04:35:35.725Z,100863.00
2019-03-12T04:38:07.094Z,100865.00
2019-03-12T04:40:36.369Z,100861.00
2019-03-12T04:43:05.850Z,100857.00
2019-03-12T04:45:37.948Z,100864.00
2019-03-12T04:48:07.397Z,100858.00
2019-03-12T04:50:36.857Z,100860.00
2019-03-12T04:53:06.298Z,100861.00
2019-03-12T04:55:35.761Z,100868.00
2019-03-12T04:58:05.275Z,100879.00
2019-03-12T05:00:34.711Z,100876.00
2019-03-12T05:03:04.154Z,100889.00
2019-03-12T05:05:33.629Z,100890.00
2019-03-12T05:08:03.069Z,100881.00
2019-03-12T05:10:32.528Z,100903.00
2019-03-12T05:13:01.993Z,100897.00
2019-03-12T05:15:31.432Z,100895.00
2019-03-12T05:18:00.879Z,100908.00
2019-03-12T05:20:30.346Z,100914.00
2019-03-12T05:22:59.811Z,100916.00
2019-03-12T05:25:29.246Z,100918.00
2019-03-12T05:27:58.722Z,100922.00
2019-03-12T05:30:28.170Z,100919.00
2019-03-12T05:32:57.611Z,100931.00
2019-03-12T05:35:27.066Z,100926.00
2019-03-12T05:37:56.521Z,100925.00
2019-03-12T05:40:25.949Z,100933.00
2019-03-12T05:42:55.405Z,100934.00
2019-03-12T05:45:24.845Z,100918.00
2019-03-12T05:47:54.282Z,100935.00
2019-03-12T05:50:23.737Z,100931.00
2019-03-12T05:53:13.980Z,100922.00
2019-03-12T05:55:43.515Z,100929.00
2019-03-12T05:58:12.944Z,100944.00
2019-03-12T06:00:42.566Z,100935.00
2019-03-12T06:03:12.029Z,100926.00
2019-03-12T06:05:41.482Z,100938.00
2019-03-12T06:08:10.932Z,100933.00
2019-03-12T06:10:40.423Z,100936.00
2019-03-12T06:13:09.875Z,100938.00
2019-03-12T06:15:39.317Z,100940.00
2019-03-12T06:18:08.794Z,100945.00
2019-03-12T06:20:38.239Z,100950.00
2019-03-12T06:23:07.685Z,100943.00
2019-03-12T06:25:37.171Z,100958.00
2019-03-12T06:28:06.625Z,100964.00
2019-03-12T06:30:37.697Z,100972.00
2019-03-12T06:33:17.662Z,100964.00
2019-03-12T06:35:54.202Z,100967.00
2019-03-12T06:38:24.537Z,100963.00
2019-03-12T06:40:55.604Z,100969.00
2019-03-12T06:43:29.285Z,100978.00
2019-03-12T06:46:12.323Z,100976.00
2019-03-12T06:48:45.954Z,100990.00
2019-03-12T06:51:17.030Z,100986.00
2019-03-12T06:53:48.142Z,100990.00
2019-03-12T06:56:34.275Z,101004.00
2019-03-12T06:59:21.606Z,101002.00
2019-03-12T07:01:58.977Z,101003.00
2019-03-12T07:04:46.654Z,101005.00
2019-03-12T07:07:33.916Z,101002.00
2019-03-12T07:10:08.544Z,101017.00
2019-03-12T07:12:48.626Z,101017.00
2019-03-12T07:15:35.050Z,101019.00
2019-03-12T07:18:06.219Z,101022.00
2019-03-12T07:20:46.664Z,101017.00
2019-03-12T07:23:17.745Z,101029.00
2019-03-12T07:26:05.224Z,101034.00
2019-03-12T07:28:50.838Z,101025.00
2019-03-12T07:31:21.222Z,101022.00
2019-03-12T07:33:52.358Z,101019.00
2019-03-12T07:36:26.432Z,101021.00
2019-03-12T07:38:57.522Z,101013.00
2019-03-12T07:41:47.307Z,101013.00
2019-03-12T07:44:24.578Z,101019.00
2019-03-12T07:47:07.932Z,101018.00
2019-03-12T07:49:48.022Z,101020.00
2019-03-12T07:52:19.123Z,101025.00
2019-03-12T07:54:50.213Z,101027.00
2019-03-12T07:57:21.294Z,101035.00
2019-03-12T07:59:52.405Z,101033.00
2019-03-12T08:02:26.237Z,101032.00
2019-03-12T08:05:13.733Z,101023.00
2019-03-12T08:08:02.544Z,101029.00
2019-03-12T08:10:39.441Z,101029.00
2019-03-12T08:13:16.642Z,101033.00
2019-03-12T08:15:53.906Z,101033.00
2019-03-12T08:18:40.261Z,101025.00
2019-03-12T08:21:27.519Z,101023.00
2019-03-12T08:23:58.607Z,101030.00
2019-03-12T08:26:33.012Z,101027.00
2019-03-12T08:29:13.046Z,101034.00
2019-03-12T08:31:44.150Z,101025.00
2019-03-12T08:34:24.437Z,101017.00
2019-03-12T08:36:58.425Z,101024.00
2019-03-12T08:39:44.410Z,101016.00
2019-03-12T08:42:21.003Z,101021.00
2019-03-12T08:44:59.092Z,101030.00
2019-03-12T08:47:30.367Z,101025.00
2019-03-12T08:50:07.464Z,101017.00
2019-03-12T08:52:44.585Z,101016.00
2019-03-12T08:55:15.679Z,101014.00
2019-03-12T08:57:55.782Z,101019.00
2019-03-12T09:00:26.868Z,101018.00
2019-03-12T09:02:57.962Z,101022.00
2019-03-12T09:05:34.761Z,101022.00
2019-03-12T09:08:22.023Z,101019.00
2019-03-12T09:10:53.142Z,101018.00
2019-03-12T09:13:24.225Z,101011.00
2019-03-12T09:15:55.307Z,100998.00
2019-03-12T09:18:42.817Z,101011.00
2019-03-12T09:21:13.910Z,101004.00
2019-03-12T09:23:44.974Z,101002.00
2019-03-12T09:26:24.923Z,100992.00
2019-03-12T09:29:14.344Z,100991.00
2019-03-12T09:31:54.402Z,100985.00
2019-03-12T09:34:25.518Z,100983.00
2019-03-12T09:37:02.967Z,100972.00
2019-03-12T09:39:50.382Z,100973.00
2019-03-12T09:42:21.479Z,100978.00
2019-03-12T09:44:59.033Z,100970.00
2019-03-12T09:47:32.672Z,100967.00
2019-03-12T09:50:06.549Z,100971.00
2019-03-12T09:52:37.621Z,100971.00
2019-03-12T09:55:14.888Z,100968.00
2019-03-12T09:57:45.973Z,100978.00
2019-03-12T10:00:30.108Z,100977.00
2019-03-12T10:03:10.043Z,100979.00
2019-03-12T10:05:41.173Z,100980.00
2019-03-12T10:08:12.243Z,100983.00
2019-03-12T10:10:43.332Z,100979.00
2019-03-12T10:13:14.432Z,100973.00
2019-03-12T10:15:45.511Z,100962.00
2019-03-12T10:18:22.124Z,100967.00
2019-03-12T10:20:58.659Z,100964.00
2019-03-12T10:23:45.025Z,100958.00
2019-03-12T10:26:16.104Z,100961.00
2019-03-12T10:28:56.004Z,100956.00
2019-03-12T10:31:36.282Z,100957.00
2019-03-12T10:34:07.395Z,100965.00
2019-03-12T10:36:44.528Z,100963.00
2019-03-12T10:40:03.417Z,100968.00
2019-03-12T10:42:47.557Z,100953.00
2019-03-12T10:45:18.850Z,100953.00
2019-03-12T10:47:49.926Z,100949.00
2019-03-12T10:50:19.430Z,100955.00
2019-03-12T10:52:48.908Z,100954.00
2019-03-12T10:55:18.356Z,100950.00
2019-03-12T10:57:47.798Z,100942.00
2019-03-12T11:00:19.480Z,100956.00
2019-03-12T11:02:48.991Z,100942.00
2019-03-12T11:05:19.740Z,100945.00
2019-03-12T11:07:49.202Z,100950.00
2019-03-12T11:10:20.426Z,100952.00
2019-03-12T11:12:49.871Z,100950.00
2019-03-12T11:15:19.401Z,100956.00
2019-03-12T11:17:50.340Z,100959.00
2019-03-12T11:20:25.453Z,100958.00
2019-03-12T11:22:54.906Z,100957.00
2019-03-12T11:25:27.801Z,100947.00
2019-03-12T11:27:55.544Z,100946.00
2019-03-12T11:30:25.006Z,100950.00
2019-03-12T11:32:54.458Z,100952.00
2019-03-12T11:35:23.912Z,100943.00
2019-03-12T11:37:53.365Z,100930.00
2019-03-12T11:40:25.820Z,100941.00
2019-03-12T11:42:56.545Z,100936.00
2019-03-12T11:45:36.345Z,100924.00
2019-03-12T11:47:57.160Z,100917.00
2019-03-12T11:50:27.496Z,100926.00
2019-03-12T11:52:59.366Z,100922.00
2019-03-12T11:55:28.559Z,100909.00
2019-03-12T11:57:58.111Z,100909.00
2019-03-12T12:00:44.068Z,100908.00
2019-03-12T12:03:13.557Z,100891.00
2019-03-12T12:05:43.021Z,100887.00
2019-03-12T12:08:12.462Z,100886.00
2019-03-12T12:10:42.488Z,100872.00
2019-03-12T12:13:12.003Z,100855.00
2019-03-12T12:15:41.498Z,100863.00
2019-03-12T12:18:11.122Z,100868.00
2019-03-12T12:20:40.660Z,100865.00
2019-03-12T12:23:10.083Z,100864.00
2019-03-12T12:25:39.542Z,100862.00
2019-03-12T12:28:08.976Z,100859.00
2019-03-12T12:30:38.425Z,100857.00
2019-03-12T12:33:07.911Z,100860.00
2019-03-12T12:35:37.363Z,100860.00
2019-03-12T12:38:06.783Z,100852.00
2019-03-12T12:40:36.228Z,100854.00
2019-03-12T12:43:05.675Z,100850.00
2019-03-12T12:45:40.852Z,100838.00
2019-03-12T12:48:10.343Z,100852.00
2019-03-12T12:50:39.784Z,100834.00
2019-03-12T12:53:09.232Z,100830.00
2019-03-12T12:55:38.685Z,100812.00
2019-03-12T12:58:09.282Z,100813.00
2019-03-12T13:00:38.907Z,100812.00
2019-03-12T13:03:08.422Z,100804.00
2019-03-12T13:05:37.905Z,100811.00
2019-03-12T13:08:07.332Z,100805.00
2019-03-12T13:10:36.877Z,100807.00
2019-03-12T13:13:06.383Z,100799.00
2019-03-12T13:15:35.824Z,100793.00
2019-03-12T13:18:05.497Z,100794.00
2019-03-12T13:20:34.969Z,100791.00
2019-03-12T13:23:04.479Z,100783.00
2019-03-12T13:25:33.911Z,100778.00
2019-03-12T13:28:03.339Z,100779.00
2019-03-12T13:30:32.939Z,100772.00
2019-03-12T13:33:02.422Z,100766.00
2019-03-12T13:35:31.871Z,100748.00
2019-03-12T13:38:01.309Z,100767.00
2019-03-12T13:40:30.811Z,100759.00
2019-03-12T13:43:00.372Z,100769.00
2019-03-12T13:45:32.170Z,100755.00
2019-03-12T13:48:01.864Z,100761.00
2019-03-12T13:50:31.974Z,100748.00
2019-03-12T13:53:01.577Z,100754.00
2019-03-12T13:55:31.034Z,100746.00
2019-03-12T13:58:00.534Z,100735.00
2019-03-12T14:00:33.086Z,100736.00
2019-03-12T14:03:01.342Z,100737.00
2019-03-12T14:05:30.775Z,100736.00
2019-03-12T14:08:00.222Z,100737.00
2019-03-12T14:10:29.770Z,100726.00
2019-03-12T14:12:59.377Z,100732.00
2019-03-12T14:15:33.818Z,100728.00
2019-03-12T14:18:03.439Z,100727.00
2019-03-12T14:21:04.410Z,100713.00
2019-03-12T14:23:56.252Z,100719.00
2019-03-12T14:26:25.946Z,100718.00
2019-03-12T14:28:55.388Z,100731.00
2019-03-12T14:31:24.915Z,100717.00
2019-03-12T14:33:54.324Z,100731.00
2019-03-12T14:36:23.852Z,100726.00
2019-03-12T14:38:53.379Z,100724.00
2019-03-12T14:41:22.986Z,100713.00
2019-03-12T14:43:52.436Z,100711.00
2019-03-12T14:46:22.157Z,100713.00
2019-03-12T14:48:54.381Z,100709.00
2019-03-12T14:51:33.835Z,100703.00
2019-03-12T14:54:12.730Z,100702.00
2019-03-12T14:56:42.637Z,100693.00
2019-03-12T14:59:12.191Z,100694.00
2019-03-12T15:01:41.635Z,100686.00
2019-03-12T15:04:11.169Z,100673.00
2019-03-12T15:06:40.682Z,100678.00
2019-03-12T15:09:13.427Z,100663.00
2019-03-12T15:11:42.943Z,100651.00
2019-03-12T15:14:12.369Z,100656.00
2019-03-12T15:16:41.815Z,100656.00
2019-03-12T15:19:11.289Z,100647.00
2019-03-12T15:21:40.950Z,100646.00
2019-03-12T15:24:10.404Z,100642.00
2019-03-12T15:26:40.068Z,100629.00
2019-03-12T15:29:09.490Z,100633.00
2019-03-12T15:31:38.940Z,100623.00
2019-03-12T15:34:08.409Z,100621.00
2019-03-12T15:36:37.861Z,100616.00
2019-03-12T15:39:08.522Z,100614.00
2019-03-12T15:41:38.002Z,100619.00
2019-03-12T15:44:07.441Z,100612.00
2019-03-12T15:46:36.880Z,100613.00
2019-03-12T15:49:06.350Z,100611.00
2019-03-12T15:51:35.779Z,100605.00
2019-03-12T15:54:05.331Z,100610.00
2019-03-12T15:56:34.873Z,100597.00
2019-03-12T15:59:04.332Z,100595.00
2019-03-12T16:01:33.750Z,100604.00
2019-03-12T16:04:03.203Z,100596.00
2019-03-12T16:06:32.654Z,100599.00
2019-03-12T16:09:02.096Z,100596.00
2019-03-12T16:11:31.582Z,100596.00
2019-03-12T16:14:01.028Z,100592.00
2019-03-12T16:16:30.451Z,100587.00
2019-03-12T16:18:59.905Z,100589.00
2019-03-12T16:21:29.341Z,100576.00
2019-03-12T16:23:58.892Z,100575.00
2019-03-12T16:26:28.384Z,100577.00
2019-03-12T16:28:57.823Z,100558.00
2019-03-12T16:31:27.258Z,100556.00
2019-03-12T16:33:56.715Z,100559.00
2019-03-12T16:36:26.160Z,100559.00
2019-03-12T16:38:55.625Z,100553.00
2019-03-12T16:41:25.066Z,100546.00
2019-03-12T16:43:54.524Z,100541.00
2019-03-12T16:46:23.971Z,100540.00
2019-03-12T16:48:54.376Z,100537.00
2019-03-12T16:51:23.827Z,100536.00
2019-03-12T16:53:53.285Z,100543.00
2019-03-12T16:56:23.862Z,100544.00
2019-03-12T16:58:53.463Z,100532.00
2019-03-12T17:01:22.922Z,100539.00
2019-03-12T17:03:52.412Z,100530.00
2019-03-12T17:06:21.826Z,100531.00
2019-03-12T17:08:51.290Z,100532.00
2019-03-12T17:11:20.778Z,100532.00
2019-03-12T17:13:50.220Z,100535.00
2019-03-12T17:16:19.671Z,100520.00
2019-03-12T17:18:49.178Z,100521.00
2019-03-12T17:21:18.617Z,100509.00
2019-03-12T17:23:48.041Z,100511.00
2019-03-12T17:26:17.523Z,100513.00
2019-03-12T17:28:46.967Z,100507.00
2019-03-12T17:31:16.501Z,100500.00
2019-03-12T17:33:45.991Z,100500.00
2019-03-12T17:36:15.412Z,100494.00
2019-03-12T17:38:46.949Z,100490.00
2019-03-12T17:41:16.040Z,100488.00
2019-03-12T17:43:45.672Z,100493.00
2019-03-12T17:46:15.126Z,100483.00
2019-03-12T17:48:44.595Z,100482.00
2019-03-12T17:51:14.212Z,100477.00
2019-03-12T17:53:43.648Z,100460.00
2019-03-12T17:56:13.114Z,100469.00
2019-03-12T17:58:42.645Z,100476.00
2019-03-12T18:01:12.061Z,100472.00
2019-03-12T18:03:41.514Z,100470.00
2019-03-12T18:06:10.965Z,100468.00
2019-03-12T18:08:40.377Z,100464.00
2019-03-12T18:11:09.944Z,100454.00
2019-03-12T18:13:39.401Z,100456.00
2019-03-12T18:16:08.861Z,100452.00
2019-03-12T18:18:38.344Z,100442.00
2019-03-12T18:21:07.767Z,100426.00
2019-03-12T18:23:37.239Z,100428.00
2019-03-12T18:26:09.119Z,100425.00
2019-03-12T18:28:38.712Z,100411.00
2019-03-12T18:31:08.156Z,100415.00
2019-03-12T18:33:37.621Z,100402.00
2019-03-12T18:36:07.075Z,100402.00
2019-03-12T18:38:38.580Z,100406.00
2019-03-12T18:41:08.070Z,100399.00
2019-03-12T18:43:37.495Z,100402.00
2019-03-12T18:46:06.932Z,100397.00
2019-03-12T18:48:36.383Z,100402.00
2019-03-12T18:51:05.999Z,100395.00
2019-03-12T18:53:35.479Z,100392.00
2019-03-12T18:56:05.528Z,100394.00
2019-03-12T18:58:34.982Z,100389.00
2019-03-12T19:01:05.132Z,100377.00
2019-03-12T19:03:36.295Z,100370.00
2019-03-12T19:06:05.917Z,100370.00
2019-03-12T19:08:35.359Z,100366.00
2019-03-12T19:11:05.360Z,100374.00
2019-03-12T19:13:34.801Z,100356.00
2019-03-12T19:16:04.364Z,100350.00
2019-03-12T19:18:33.869Z,100347.00
2019-03-12T19:21:03.368Z,100354.00
2019-03-12T19:23:32.786Z,100336.00
2019-03-12T19:26:02.451Z,100338.00
2019-03-12T19:28:31.855Z,100337.00
2019-03-12T19:31:05.714Z,100324.00
2019-03-12T19:33:35.190Z,100307.00
2019-03-12T19:36:04.922Z,100315.00
2019-03-12T19:38:34.367Z,100307.00
2019-03-12T19:41:04.170Z,100309.00
2019-03-12T19:43:33.627Z,100298.00
2019-03-12T19:46:03.080Z,100303.00
2019-03-12T19:48:32.551Z,100298.00
2019-03-12T19:51:02.003Z,100289.00
2019-03-12T19:53:31.437Z,100282.00
2019-03-12T19:56:05.547Z,100286.00
2019-03-12T19:58:34.990Z,100281.00
2019-03-12T20:01:05.372Z,100287.00
2019-03-12T20:03:34.881Z,100273.00
2019-03-12T20:06:04.306Z,100270.00
2019-03-12T20:08:33.726Z,100260.00
2019-03-12T20:11:54.037Z,100254.00
2019-03-12T20:15:16.237Z,100259.00
2019-03-12T20:18:20.647Z,100258.00
2019-03-12T20:21:24.708Z,100243.00
2019-03-12T20:24:39.025Z,100229.00
2019-03-12T20:28:00.278Z,100220.00
2019-03-12T20:31:06.093Z,100205.00
2019-03-12T20:33:52.299Z,100199.00
2019-03-12T20:36:38.206Z,100196.00
2019-03-12T20:39:51.941Z,100187.00
2019-03-12T20:43:15.769Z,100172.00
2019-03-12T20:46:34.116Z,100166.00
2019-03-12T20:49:29.257Z,100161.00
2019-03-12T20:52:44.436Z,100150.00
2019-03-12T20:55:43.897Z,100145.00
2019-03-12T20:58:52.124Z,100138.00
2019-03-12T21:01:28.848Z,100122.00
2019-03-12T21:04:30.015Z,100117.00
2019-03-12T21:07:32.485Z,100113.00
2019-03-12T21:10:12.188Z,100102.00
2019-03-12T21:13:06.827Z,100099.00
2019-03-12T21:15:58.926Z,100087.00
2019-03-12T21:19:10.235Z,100086.00
2019-03-12T21:22:17.855Z,100077.00
2019-03-12T21:24:51.929Z,100067.00
2019-03-12T21:27:34.241Z,100076.00
2019-03-12T21:30:02.066Z,100066.00
2019-03-12T21:32:31.535Z,100062.00
2019-03-12T21:35:01.009Z,100055.00
2019-03-12T21:37:30.567Z,100032.00
2019-03-12T21:40:00.125Z,100031.00
2019-03-12T21:42:29.861Z,100023.00
2019-03-12T21:45:00.483Z,100009.00
2019-03-12T21:47:30.091Z,99997.00
2019-03-12T21:49:59.571Z,99992.00
2019-03-12T21:52:28.993Z,99978.00
2019-03-12T21:54:58.449Z,99973.00
2019-03-12T21:57:27.901Z,99965.00
2019-03-12T21:59:57.357Z,99967.00
2019-03-12T22:02:26.794Z,99952.00
2019-03-12T22:04:56.345Z,99943.00
2019-03-12T22:07:25.788Z,99937.00
2019-03-12T22:09:55.244Z,99937.00
2019-03-12T22:12:24.733Z,99925.00
2019-03-12T22:14:54.170Z,99926.00
2019-03-12T22:17:23.600Z,99916.00
2019-03-12T22:19:53.056Z,99900.00
2019-03-12T22:22:33.434Z,99896.00
2019-03-12T22:25:02.879Z,99887.00
2019-03-12T22:27:32.337Z,99882.00
2019-03-12T22:30:01.820Z,99878.00
2019-03-12T22:32:31.282Z,99870.00
2019-03-12T22:35:00.774Z,99868.00
2019-03-12T22:37:30.160Z,99865.00
2019-03-12T22:39:59.623Z,99849.00
2019-03-12T22:42:29.063Z,99857.00
2019-03-12T22:44:58.521Z,99841.00
2019-03-12T22:47:28.322Z,99837.00
2019-03-12T22:49:57.778Z,99830.00
2019-03-12T22:52:27.193Z,99824.00
2019-03-12T22:54:56.701Z,99821.00
2019-03-12T22:57:26.100Z,99817.00
2019-03-12T22:59:55.560Z,99803.00
2019-03-12T23:02:25.025Z,99812.00
2019-03-12T23:04:54.471Z,99795.00
2019-03-12T23:07:24.208Z,99790.00
2019-03-12T23:09:53.774Z,99789.00
2019-03-12T23:12:23.412Z,99782.00
2019-03-12T23:14:52.870Z,99779.00
2019-03-12T23:17:22.428Z,99767.00
2019-03-12T23:19:51.939Z,99760.00
2019-03-12T23:22:21.417Z,99750.00
2019-03-12T23:24:50.995Z,99748.00
2019-03-12T23:27:20.448Z,99737.00
2019-03-12T23:29:49.910Z,99724.00
2019-03-12T23:32:20.354Z,99727.00
2019-03-12T23:34:49.873Z,99722.00
2019-03-12T23:37:19.510Z,99712.00
2019-03-12T23:39:49.156Z,99713.00
2019-03-12T23:42:18.691Z,99701.00
2019-03-12T23:44:48.155Z,99699.00
2019-03-12T23:47:17.720Z,99696.00
2019-03-12T23:49:47.165Z,99692.00
2019-03-12T23:52:16.632Z,99695.00
2019-03-12T23:54:46.411Z,99700.00
2019-03-12T23:57:15.885Z,99693.00
2019-03-12T23:59:45.353Z,99693.00
